Latest Coastal Weather Observations for Hogan Island

IDT60701

Issued at 1:52 am EST Friday 24 May 2019 (issued every 10 minutes, with the page automatically refreshed every 10 minutes)

About coastal observations | Map of coastal stations | Coastal observations for TAS | Marine services | Other Formats
Station Details ID: 200838 Name: HOGAN ISLAND Lat: -39.22 Lon: 146.98 Height: 116.0 m
Data from the previous 72 hours. | See also: Recent months at Hogan Island
Date/Time
EST
Wind Sea
Height
m
Swell Vis
km
Cloud Weather Temp
°C
Press
hPa
Rain since
9am
mm
Dir  Spd
kts
Gust
kts
Height
m
Period
s
Dir
24/01:47am WNW 19 25 - - - - - - - 15.0 1018.6 0.0
24/01:30am W 7 9 - - - - - - - 14.2 1018.5 0.0
24/01:00am W 18 21 - - - - - - - 15.9 1019.4 0.0
24/12:30am NW 14 16 - - - - - - - 16.4 1019.2 0.0
24/12:00am N 14 18 - - - - - - - 16.9 1018.7 0.0
 
Date/Time
EST
Wind Sea
Height
m
Swell Vis
km
Cloud Weather Temp
°C
Press
hPa
Rain since
9am
mm
Dir  Spd
kts
Gust
kts
Height
m
Period
s
Dir
23/11:30pm N 13 16 - - - - - - - 16.3 1019.0 0.0
23/11:00pm N 12 15 - - - - - - - 16.4 1019.3 0.0
23/10:30pm NNW 14 19 - - - - - - - 16.7 1019.6 0.0
23/10:00pm N 13 17 - - - - - - - 16.4 1020.0 0.0
23/09:30pm N 14 19 - - - - - - - 16.5 1020.2 0.0
23/09:00pm N 17 21 - - - - - - - 16.5 1020.2 0.0
23/08:30pm N 18 23 - - - - - - - 16.6 1020.4 0.0
23/08:00pm N 20 24 - - - - - - - 16.6 1020.5 0.0
23/07:30pm N 18 23 - - - - - - - 16.4 1020.7 0.0
23/07:00pm N 18 22 - - - - - - - 16.0 1020.7 0.0
23/06:30pm N 15 19 - - - - - - - 15.4 1020.8 0.0
23/06:00pm N 16 18 - - - - - - - 15.4 1020.7 0.0
23/05:30pm N 14 16 - - - - - - - 15.0 1020.9 0.0
23/05:00pm N 12 15 - - - - - - - 14.7 1021.0 0.0
23/04:30pm NNE 10 11 - - - - - - - 14.9 1021.3 0.0
23/04:00pm NNE 10 11 - - - - - - - 15.6 1021.5 0.0
23/03:30pm NNE 9 11 - - - - - - - 16.3 1021.7 0.0
23/03:00pm N 10 13 - - - - - - - 17.0 1022.1 0.0
23/02:30pm N 9 12 - - - - - - - 18.2 1022.4 0.0
23/02:00pm N 10 12 - - - - - - - 18.0 1022.7 0.0
23/01:30pm N 9 11 - - - - - - - 18.3 1023.0 0.0
23/01:00pm N 9 13 - - - - - - - 18.1 1023.3 0.0
23/12:30pm N 10 13 - - - - - - - 18.0 1023.8 0.0
23/12:00pm N 9 13 - - - - - - - 17.2 1024.4 0.0
23/11:30am N 8 11 - - - - - - - 16.8 1024.9 0.0
23/11:00am NNW 7 11 - - - - - - - 16.8 1025.5 0.0
23/10:30am NNW 8 11 - - - - - - - 16.3 1025.9 0.0
23/10:00am N 8 10 - - - - - - - 16.2 1025.9 0.0
23/09:30am N 8 11 - - - - - - - 15.7 1026.1 0.0
23/09:00am N 8 10 - - - - - - - 15.2 1026.2 0.0
23/08:30am NNW 7 10 - - - - - - - 14.8 1026.2 0.0
23/08:00am NNW 8 11 - - - - - - - 14.4 1026.1 0.0
23/07:30am N 9 12 - - - - - - - 14.1 1026.0 0.0
23/07:00am N 9 13 - - - - - - - 13.5 1025.7 0.0
23/06:30am N 10 14 - - - - - - - 13.5 1025.6 0.0
23/06:00am N 10 14 - - - - - - - 13.6 1025.6 0.0
23/05:30am N 11 14 - - - - - - - 13.5 1025.5 0.0
23/05:00am N 13 16 - - - - - - - 13.6 1025.6 0.0
23/04:30am N 10 13 - - - - - - - 13.2 1025.7 0.0
23/04:00am N 11 14 - - - - - - - 13.3 1025.9 0.0
23/03:30am N 10 13 - - - - - - - 13.2 1026.1 0.0
23/03:00am N 9 11 - - - - - - - 13.4 1026.5 0.0
23/02:30am N 9 11 - - - - - - - 13.2 1026.5 0.0
23/02:00am N 8 11 - - - - - - - 13.0 1026.7 0.0
23/01:30am N 6 8 - - - - - - - 12.8 1026.8 0.0
23/01:00am N 8 9 - - - - - - - 13.0 1027.0 0.0
23/12:30am N 8 11 - - - - - - - 13.4 1027.1 0.0
23/12:00am N 7 11 - - - - - - - 13.6 1027.3 0.0
 
Date/Time
EST
Wind Sea
Height
m
Swell Vis
km
Cloud Weather Temp
°C
Press
hPa
Rain since
9am
mm
Dir  Spd
kts
Gust
kts
Height
m
Period
s
Dir
22/11:30pm NW 8 10 - - - - - - - 13.4 1027.3 0.0
22/11:00pm WNW 6 7 - - - - - - - 13.3 1027.5 0.0
22/10:30pm W 8 9 - - - - - - - 13.3 1027.3 0.0
22/10:00pm W 9 11 - - - - - - - 13.5 1027.6 0.0
22/09:30pm W 10 12 - - - - - - - 13.5 1027.5 0.0
22/09:00pm W 11 13 - - - - - - - 13.5 1027.5 0.0
22/08:30pm W 8 9 - - - - - - - 13.5 1027.6 0.0
22/08:00pm W 10 11 - - - - - - - 13.6 1027.5 0.0
22/07:30pm W 10 12 - - - - - - - 13.5 1027.4 0.0
22/07:00pm W 9 11 - - - - - - - 13.5 1027.3 0.0
22/06:30pm W 9 11 - - - - - - - 14.2 1027.2 0.0
22/06:00pm W 11 13 - - - - - - - 13.9 1027.1 0.0
22/05:30pm W 11 13 - - - - - - - 14.1 1026.8 0.0
22/05:00pm W 15 17 - - - - - - - 14.4 1026.7 0.0
22/04:30pm W 15 17 - - - - - - - 15.2 1026.5 0.0
22/04:00pm W 14 17 - - - - - - - 15.9 1026.5 0.0
22/03:30pm W 15 17 - - - - - - - 15.9 1026.4 0.0
22/03:00pm W 15 18 - - - - - - - 16.2 1026.4 0.0
22/02:30pm W 17 19 - - - - - - - 16.5 1026.2 0.0
22/02:00pm W 17 20 - - - - - - - 16.9 1026.2 0.0
22/01:30pm W 13 16 - - - - - - - 17.1 1026.4 0.0
22/01:00pm W 11 13 - - - - - - - 17.0 1026.6 0.0
22/12:30pm WNW 11 13 - - - - - - - 16.4 1026.7 0.0
22/12:00pm WNW 13 14 - - - - - - - 16.7 1026.9 0.0
22/11:30am WNW 13 15 - - - - - - - 16.1 1027.1 0.0
22/11:00am WNW 9 11 - - - - - - - 16.4 1027.4 0.0
22/10:30am NW 10 13 - - - - - - - 16.0 1027.5 0.0
22/10:00am WNW 13 16 - - - - - - - 15.6 1027.4 0.0
22/09:30am WNW 16 19 - - - - - - - 15.2 1027.1 0.0
22/09:00am NW 16 19 - - - - - - - 14.8 1027.0 0.0
22/08:30am NW 13 17 - - - - - - - 14.5 1026.8 0.0
22/08:00am NW 17 21 - - - - - - - 14.3 1026.5 0.0
22/07:30am NW 15 21 - - - - - - - 13.9 1026.0 0.0
22/07:00am WNW 18 20 - - - - - - - 14.3 1025.7 0.0
22/06:30am WNW 20 22 - - - - - - - 14.4 1025.5 0.0
22/06:00am WNW 22 23 - - - - - - - 14.1 1025.2 0.0
22/05:30am WNW 19 21 - - - - - - - 14.1 1024.8 0.0
22/05:00am WNW 20 22 - - - - - - - 14.2 1024.7 0.0
22/04:30am NW 15 19 - - - - - - - 14.1 1024.8 0.0
22/04:00am NW 17 20 - - - - - - - 14.0 1024.8 0.0
22/03:30am NW 18 22 - - - - - - - 14.1 1024.6 0.0
22/03:00am WNW 23 25 - - - - - - - 14.3 1024.3 0.0
22/02:30am NW 21 25 - - - - - - - 14.5 1024.3 0.0
22/02:00am NW 18 23 - - - - - - - 14.1 1024.3 0.0
22/01:30am NW 19 24 - - - - - - - 14.1 1024.1 0.0
22/01:00am NW 19 23 - - - - - - - 14.2 1024.2 0.0
22/12:30am NW 18 22 - - - - - - - 14.4 1024.2 0.0
22/12:00am NW 17 22 - - - - - - - 14.5 1024.0 0.0
 
Date/Time
EST
Wind Sea
Height
m
Swell Vis
km
Cloud Weather Temp
°C
Press
hPa
Rain since
9am
mm
Dir  Spd
kts
Gust
kts
Height
m
Period
s
Dir
21/11:30pm NW 16 20 - - - - - - - 14.5 1024.0 0.0
21/11:00pm NW 17 23 - - - - - - - 14.6 1024.0 0.0
21/10:30pm NW 18 21 - - - - - - - 14.6 1023.9 0.0
21/10:00pm NW 16 20 - - - - - - - 14.8 1024.0 0.0
21/09:30pm NW 14 17 - - - - - - - 14.8 1023.9 0.0
21/09:00pm NNW 12 16 - - - - - - - 14.8 1023.7 0.0
21/08:30pm WNW 17 21 - - - - - - - 15.3 1023.3 0.0
21/08:00pm WNW 15 17 - - - - - - - 15.0 1023.2 0.0
21/07:30pm WNW 17 19 - - - - - - - 15.2 1023.1 0.0
21/07:00pm WNW 20 23 - - - - - - - 15.3 1022.7 0.0
21/06:30pm WNW 20 24 - - - - - - - 15.2 1022.6 0.0
21/06:00pm WNW 24 28 - - - - - - - 15.2 1022.3 0.0
21/05:30pm WNW 27 30 - - - - - - - 15.2 1021.8 0.0
21/05:00pm WNW 26 30 - - - - - - - 15.2 1021.5 0.0
21/04:30pm WNW 26 30 - - - - - - - 15.3 1021.2 0.0
21/04:00pm WNW 27 32 - - - - - - - 15.6 1021.0 0.0
21/03:30pm WNW 24 28 - - - - - - - 15.7 1020.9 0.0
21/03:00pm W 21 24 - - - - - - - 15.4 1020.9 0.0
21/02:30pm W 25 29 - - - - - - - 15.7 1020.5 0.0
21/02:00pm W 27 31 - - - - - - - 15.9 1020.5 0.0
21/01:30pm W 22 26 - - - - - - - 16.2 1020.6 0.0
21/01:00pm WNW 22 25 - - - - - - - 15.8 1020.7 0.0
21/12:30pm WNW 22 27 - - - - - - - 15.6 1020.9 0.0
21/12:00pm WNW 24 27 - - - - - - - 15.3 1021.0 0.0
21/11:30am WNW 21 25 - - - - - - - 15.3 1021.4 0.0
21/11:00am NW 21 26 - - - - - - - 15.1 1021.4 0.0
21/10:30am WNW 23 27 - - - - - - - 15.5 1021.3 0.0
21/10:00am WNW 23 27 - - - - - - - 14.9 1021.2 0.0
21/09:30am WNW 23 26 - - - - - - - 14.8 1021.3 0.0
21/09:00am WNW 20 24 - - - - - - - 14.7 1021.3 2.2
21/08:30am WNW 20 23 - - - - - - - 14.5 1021.2 2.2
21/08:00am WNW 18 22 - - - - - - - 14.4 1020.9 2.2
21/07:30am WNW 22 25 - - - - - - - 14.5 1020.4 2.2
21/07:00am WNW 25 30 - - - - - - - 14.3 1019.6 2.2
21/06:30am WNW 26 31 - - - - - - - 14.3 1019.2 2.2
21/06:00am W 27 32 - - - - - - - 14.3 1019.1 2.2
21/05:30am WNW 27 31 - - - - - - - 14.2 1018.6 2.2
21/05:00am W 29 33 - - - - - - - 14.3 1018.3 2.2
21/04:30am WNW 25 31 - - - - - - - 14.3 1018.5 2.2
21/04:00am WNW 27 31 - - - - - - - 14.4 1018.1 2.2
21/03:30am WNW 22 24 - - - - - - - 14.2 1018.3 2.2
21/03:00am NW 16 20 - - - - - - - 14.1 1018.8 2.2
21/02:49am NW 16 25 - - - - - - - 14.5 1018.7 2.2
21/02:30am WNW 24 29 - - - - - - - 14.8 1018.2 2.2
21/02:00am WNW 22 26 - - - - - - - 15.0 1018.2 2.2

Other formats

Comma delimited format used in spreadsheet applications
http://www.bom.gov.au/fwo/IDT60701/IDT60701.94949.axf

JavaScript Object Notation format (JSON) in row-major order
http://www.bom.gov.au/fwo/IDT60701/IDT60701.94949.json

Data quality

Most of these data are generated automatically and are frequently updated. Quality checks on data are not normally performed. It is possible for incorrect values to appear. Refer to information at About Latest Weather Observations and please check the disclaimer before using these data.